Time;durP1;ratioP1;P1;durP2;ratioP2;P2;SDS_P1;SDS_P2;PMS_P1;PMS_P2;Temp;Humidity;BMP_temperature;BMP_pressure;BME280_temperature;BME280_humidity;BME280_pressure;Samples;Min_cycle;Max_cycle;Signal;HPM_P1;HPM_P2
2023/12/27 00:00:37;;;;;;;6.27;0.70;;;5.50;99.90;5.30;100888.00;;;;4914561;28;103940;-71
2023/12/27 00:03:03;;;;;;;3.40;0.83;;;5.50;99.90;5.20;100884.00;;;;4910226;28;90257;-70
2023/12/27 00:05:30;;;;;;;0.50;0.50;;;5.40;99.90;5.20;100891.00;;;;4909961;28;87802;-71
2023/12/27 00:07:55;;;;;;;2.20;0.70;;;5.30;99.90;5.20;100889.00;;;;4910447;28;90012;-73
2023/12/27 00:10:21;;;;;;;0.30;0.30;;;5.30;99.90;5.20;100898.00;;;;4923028;28;116850;-72
2023/12/27 00:12:47;;;;;;;0.90;0.67;;;5.40;99.90;5.10;100895.00;;;;4915080;28;87659;-72
2023/12/27 00:15:13;;;;;;;0.60;0.30;;;5.30;99.90;5.10;100904.00;;;;4896377;28;109076;-72
2023/12/27 00:17:38;;;;;;;2.77;0.60;;;5.30;99.90;5.10;100912.00;;;;4925205;28;108431;-72
2023/12/27 00:20:05;;;;;;;4.03;0.83;;;5.50;99.90;5.00;100906.00;;;;4913051;28;116828;-72
2023/12/27 00:22:30;;;;;;;0.20;0.20;;;5.30;99.90;5.00;100912.00;;;;4914306;28;98620;-74
2023/12/27 00:24:59;;;;;;;0.83;0.47;;;5.20;99.90;4.90;100925.00;;;;4917041;28;106723;-72
2023/12/27 00:27:25;;;;;;;0.87;0.30;;;5.10;99.90;4.90;100921.00;;;;4908352;28;118442;-70
2023/12/27 00:29:51;;;;;;;0.40;0.37;;;5.10;99.90;4.80;100916.00;;;;4917163;28;116765;-72
2023/12/27 00:32:16;;;;;;;2.43;0.90;;;5.00;99.90;4.80;100925.00;;;;4914818;28;89997;-70
2023/12/27 00:34:42;;;;;;;1.93;0.50;;;5.40;99.90;4.70;100927.00;;;;4910060;28;108796;-72
2023/12/27 00:37:09;;;;;;;1.13;0.40;;;4.90;99.90;4.70;100911.00;;;;4911827;28;117049;-72
2023/12/27 00:39:35;;;;;;;2.27;0.67;;;4.90;99.90;4.70;100924.00;;;;4915352;28;88792;-72
2023/12/27 00:42:00;;;;;;;0.60;0.50;;;4.90;99.90;4.70;100936.00;;;;4914970;28;100311;-72
2023/12/27 00:44:26;;;;;;;1.43;0.60;;;4.80;99.90;4.60;100933.00;;;;4917603;28;107943;-69
2023/12/27 00:46:52;;;;;;;2.47;0.70;;;4.90;99.90;4.60;100936.00;;;;4916980;28;118487;-72
2023/12/27 00:49:21;;;;;;;0.40;0.40;;;4.80;99.90;4.50;100940.00;;;;4931966;28;112002;-74
2023/12/27 00:51:47;;;;;;;0.50;0.30;;;5.20;99.90;4.50;100940.00;;;;4911029;28;88978;-70
2023/12/27 00:54:13;;;;;;;0.93;0.73;;;4.70;99.90;4.40;100935.00;;;;4917150;28;108664;-71
2023/12/27 00:56:39;;;;;;;0.23;0.20;;;4.70;99.90;4.40;100934.00;;;;4912489;28;118022;-70
2023/12/27 00:59:06;;;;;;;2.00;0.70;;;4.60;99.90;4.30;100949.00;;;;4909105;28;89710;-71
2023/12/27 01:01:32;;;;;;;2.20;0.40;;;4.60;99.90;4.30;100957.00;;;;4910598;28;109560;-70
2023/12/27 01:03:58;;;;;;;0.87;0.50;;;4.50;99.90;4.30;100968.00;;;;4909024;28;87829;-71
2023/12/27 01:06:23;;;;;;;0.53;0.40;;;4.50;99.90;4.20;100979.00;;;;4921547;28;107460;-70
2023/12/27 01:08:49;;;;;;;1.13;0.43;;;4.40;99.90;4.20;100976.00;;;;4911309;28;117766;-70
2023/12/27 01:11:15;;;;;;;2.73;0.73;;;4.40;99.90;4.20;100973.00;;;;4908357;28;107789;-70
2023/12/27 01:13:41;;;;;;;0.30;0.30;;;4.40;99.90;4.10;100979.00;;;;4916315;28;87176;-70
2023/12/27 01:16:07;;;;;;;4.17;0.93;;;4.40;99.90;4.10;100981.00;;;;4914798;28;88828;-71
2023/12/27 01:18:32;;;;;;;0.50;0.30;;;4.30;99.90;4.10;100985.00;;;;4911103;28;101365;-72
2023/12/27 01:20:58;;;;;;;0.73;0.47;;;4.30;99.90;4.10;100995.00;;;;4910772;28;110476;-71
2023/12/27 01:23:24;;;;;;;2.93;0.50;;;4.30;99.90;4.00;100997.00;;;;4909081;28;110201;-70
2023/12/27 01:25:49;;;;;;;0.60;0.60;;;4.30;99.90;4.00;100992.00;;;;4920826;28;116602;-68
2023/12/27 01:28:16;;;;;;;0.20;0.20;;;4.60;99.90;4.00;101000.00;;;;4908647;28;115882;-70
2023/12/27 01:30:41;;;;;;;6.43;0.73;;;4.30;99.90;4.00;100992.00;;;;4911694;28;87751;-68
2023/12/27 01:33:07;;;;;;;0.40;0.40;;;4.20;99.90;4.00;100997.00;;;;4911178;28;107876;-67
2023/12/27 01:35:32;;;;;;;1.03;0.77;;;4.20;99.90;4.00;101005.00;;;;4914926;28;119210;-68
2023/12/27 01:37:58;;;;;;;2.10;0.60;;;4.20;99.90;3.90;100995.00;;;;4917988;28;115956;-69
2023/12/27 01:40:24;;;;;;;0.30;0.30;;;4.60;99.90;3.90;101011.00;;;;4911824;28;108141;-69
2023/12/27 01:42:49;;;;;;;1.30;0.67;;;4.10;99.90;3.90;101023.00;;;;4918992;28;87765;-69
2023/12/27 01:45:15;;;;;;;0.80;0.70;;;4.80;99.90;3.80;101022.00;;;;4933542;28;116257;-69
2023/12/27 01:47:42;;;;;;;2.10;0.80;;;4.10;99.90;3.80;101019.00;;;;4921253;28;89571;-68
2023/12/27 01:50:09;;;;;;;3.63;0.60;;;4.10;99.90;3.80;101013.00;;;;4926843;28;87978;-68
2023/12/27 01:52:36;;;;;;;0.50;0.40;;;4.50;99.90;3.70;101024.00;;;;4913060;28;87880;-68
2023/12/27 01:55:03;;;;;;;1.37;0.60;;;4.60;99.90;3.70;101024.00;;;;4911480;28;88724;-69
2023/12/27 01:57:29;;;;;;;0.33;0.33;;;4.00;99.90;3.70;101023.00;;;;4913855;28;108961;-71
2023/12/27 01:59:54;;;;;;;0.50;0.50;;;4.60;99.90;3.60;101037.00;;;;4915444;28;109767;-69
2023/12/27 02:02:22;;;;;;;0.93;0.43;;;4.70;99.90;3.60;101033.00;;;;4912427;28;108207;-70
2023/12/27 02:04:48;;;;;;;4.63;0.57;;;3.90;99.90;3.60;101031.00;;;;4934099;28;93779;-69
2023/12/27 02:07:14;;;;;;;6.23;0.80;;;3.80;99.90;3.50;101021.00;;;;4910376;28;117719;-70
2023/12/27 02:09:40;;;;;;;0.60;0.47;;;3.80;99.90;3.50;101031.00;;;;4912488;28;98048;-71
2023/12/27 02:12:07;;;;;;;0.60;0.57;;;3.70;99.90;3.50;101030.00;;;;4907752;28;88077;-70
2023/12/27 02:14:32;;;;;;;0.40;0.40;;;3.80;99.90;3.50;101036.00;;;;4912997;28;108459;-70
2023/12/27 02:17:00;;;;;;;0.30;0.30;;;3.70;99.90;3.50;101036.00;;;;4908998;28;116522;-72
2023/12/27 02:19:27;;;;;;;1.90;0.90;;;4.30;99.90;3.50;101034.00;;;;4909055;28;87679;-72
2023/12/27 02:21:53;;;;;;;1.37;0.40;;;3.80;99.90;3.50;101032.00;;;;4909078;28;108936;-70
2023/12/27 02:24:21;;;;;;;0.87;0.40;;;4.00;99.90;3.50;101039.00;;;;4910456;28;88592;-69
2023/12/27 02:26:47;;;;;;;2.27;0.60;;;3.70;99.90;3.40;101038.00;;;;4926206;28;88695;-72
2023/12/27 02:29:14;;;;;;;0.93;0.30;;;3.70;99.90;3.40;101038.00;;;;4909973;28;88228;-69
2023/12/27 02:31:39;;;;;;;0.97;0.50;;;3.70;99.90;3.40;101044.00;;;;4906765;28;100296;-69
2023/12/27 02:34:05;;;;;;;3.30;0.77;;;3.60;99.90;3.40;101044.00;;;;4907224;28;119194;-71
2023/12/27 02:36:31;;;;;;;0.57;0.50;;;3.70;99.90;3.40;101054.00;;;;4910346;28;116872;-69
2023/12/27 02:38:56;;;;;;;0.73;0.50;;;3.60;99.90;3.40;101053.00;;;;4909361;28;111716;-71
2023/12/27 02:41:22;;;;;;;1.40;0.80;;;3.70;99.90;3.40;101046.00;;;;4909005;28;109619;-72
2023/12/27 02:43:48;;;;;;;0.20;0.20;;;3.80;99.90;3.40;101047.00;;;;4912026;28;119952;-69
2023/12/27 02:46:13;;;;;;;0.40;0.30;;;3.60;99.90;3.40;101045.00;;;;4912623;28;88645;-69
2023/12/27 02:48:39;;;;;;;1.27;0.87;;;3.60;99.90;3.30;101052.00;;;;4907502;28;111009;-71
2023/12/27 02:51:05;;;;;;;3.80;0.83;;;3.60;99.90;3.30;101050.00;;;;4904025;28;109408;-73
2023/12/27 02:53:31;;;;;;;0.87;0.83;;;3.50;99.90;3.20;101049.00;;;;4921489;28;117434;-72
2023/12/27 02:55:57;;;;;;;1.00;0.70;;;3.50;99.90;3.20;101055.00;;;;4907393;28;88119;-72
2023/12/27 02:58:23;;;;;;;3.57;1.07;;;3.40;99.90;3.20;101048.00;;;;4908729;28;89529;-71
2023/12/27 03:00:49;;;;;;;0.63;0.53;;;3.40;99.90;3.10;101050.00;;;;4912741;28;92694;-71
2023/12/27 03:03:14;;;;;;;0.50;0.30;;;3.80;99.90;3.10;101058.00;;;;4910474;28;88017;-70
2023/12/27 03:05:40;;;;;;;2.33;0.50;;;3.30;99.90;3.10;101049.00;;;;4913848;28;88347;-70
2023/12/27 03:08:06;;;;;;;0.67;0.53;;;3.30;99.90;3.10;101055.00;;;;4913376;28;110018;-73
2023/12/27 03:10:31;;;;;;;5.83;0.53;;;3.30;99.90;3.00;101051.00;;;;4911492;28;109140;-73
2023/12/27 03:12:57;;;;;;;8.87;0.80;;;3.30;99.90;3.00;101050.00;;;;4907915;28;90293;-73
2023/12/27 03:15:23;;;;;;;1.53;0.50;;;3.30;99.90;3.00;101049.00;;;;4908934;28;115429;-71
2023/12/27 03:17:48;;;;;;;1.37;0.40;;;3.50;99.90;3.00;101057.00;;;;4912044;28;87912;-71
2023/12/27 03:20:14;;;;;;;1.37;0.77;;;3.30;99.90;3.00;101048.00;;;;4911687;28;109055;-73
2023/12/27 03:22:40;;;;;;;2.00;0.83;;;3.70;99.90;3.00;101051.00;;;;4907549;28;111983;-73
2023/12/27 03:25:06;;;;;;;2.10;0.77;;;3.30;99.90;3.00;101056.00;;;;4910195;28;92150;-72
2023/12/27 03:27:31;;;;;;;7.03;0.60;;;3.40;99.90;2.90;101053.00;;;;4911518;28;89032;-72
2023/12/27 03:29:57;;;;;;;0.67;0.43;;;3.20;99.90;2.90;101054.00;;;;4906645;28;108783;-73
2023/12/27 03:32:24;;;;;;;1.53;0.80;;;3.20;99.90;2.90;101059.00;;;;4896117;28;115681;-72
2023/12/27 03:34:50;;;;;;;0.37;0.37;;;3.20;99.90;3.00;101058.00;;;;4910448;28;92196;-71
2023/12/27 03:37:16;;;;;;;3.83;0.70;;;3.10;99.90;3.00;101051.00;;;;4905630;28;100028;-73
2023/12/27 03:39:46;;;;;;;0.90;0.60;;;3.20;99.90;3.00;101072.00;;;;4913315;28;88544;-73
2023/12/27 03:42:12;;;;;;;0.50;0.50;;;3.20;99.90;3.00;101065.00;;;;4893294;28;90276;-72
2023/12/27 03:44:38;;;;;;;0.47;0.47;;;3.20;99.90;2.90;101070.00;;;;4907274;28;88711;-71
2023/12/27 03:47:04;;;;;;;1.27;0.83;;;3.20;99.90;2.90;101067.00;;;;4905914;28;88789;-73
2023/12/27 03:49:30;;;;;;;0.73;0.67;;;3.10;99.90;2.90;101074.00;;;;4909105;28;99282;-72
2023/12/27 03:51:55;;;;;;;2.63;0.60;;;3.20;99.90;2.90;101064.00;;;;4905883;28;117334;-72
2023/12/27 03:54:21;;;;;;;1.27;0.80;;;3.60;99.90;2.90;101069.00;;;;4909309;28;116346;-70
2023/12/27 03:56:47;;;;;;;0.30;0.30;;;3.20;99.90;2.80;101090.00;;;;4908629;28;110502;-71
2023/12/27 03:59:13;;;;;;;1.13;0.73;;;3.10;99.90;2.80;101080.00;;;;4921630;28;107765;-71
2023/12/27 04:01:39;;;;;;;0.57;0.57;;;3.00;99.90;2.80;101078.00;;;;4905636;28;88958;-71
2023/12/27 04:04:04;;;;;;;2.53;0.80;;;3.00;99.90;2.70;101086.00;;;;4908479;28;88859;-71
2023/12/27 04:06:30;;;;;;;7.70;0.90;;;3.00;99.90;2.70;101085.00;;;;4910028;28;88098;-71
2023/12/27 04:08:56;;;;;;;1.43;0.67;;;2.90;99.90;2.60;101081.00;;;;4907124;28;108131;-71
2023/12/27 04:11:22;;;;;;;2.00;1.20;;;3.70;99.90;2.60;101083.00;;;;4906235;28;88989;-71
2023/12/27 04:13:47;;;;;;;1.57;0.70;;;2.90;99.90;2.60;101087.00;;;;4913240;28;89326;-72
2023/12/27 04:16:13;;;;;;;0.47;0.47;;;2.80;99.90;2.50;101082.00;;;;4907002;28;109604;-73
2023/12/27 04:18:39;;;;;;;7.93;1.30;;;2.80;99.90;2.40;101076.00;;;;4910150;28;108278;-74
2023/12/27 04:21:05;;;;;;;1.13;0.80;;;2.70;99.90;2.40;101084.00;;;;4913827;28;89692;-73
2023/12/27 04:23:30;;;;;;;0.90;0.50;;;2.70;99.90;2.40;101088.00;;;;4910487;28;116831;-73
2023/12/27 04:25:56;;;;;;;0.93;0.67;;;2.70;99.90;2.30;101083.00;;;;4920880;28;110266;-74
2023/12/27 04:28:22;;;;;;;0.27;0.27;;;2.70;99.90;2.30;101093.00;;;;4907547;28;107292;-72
2023/12/27 04:30:48;;;;;;;1.70;0.60;;;2.60;99.90;2.30;101100.00;;;;4907818;28;88977;-72
2023/12/27 04:33:13;;;;;;;2.37;0.70;;;2.60;99.90;2.20;101092.00;;;;4905907;28;117556;-72
2023/12/27 04:35:40;;;;;;;2.53;1.30;;;2.50;99.90;2.20;101090.00;;;;4905937;28;92759;-72
2023/12/27 04:38:06;;;;;;;3.47;0.70;;;2.50;99.90;2.20;101091.00;;;;4924627;28;101662;-71
2023/12/27 04:40:32;;;;;;;5.00;1.17;;;2.50;99.90;2.20;101090.00;;;;4920543;28;87974;-70
2023/12/27 04:42:59;;;;;;;0.33;0.27;;;2.30;99.90;2.10;101091.00;;;;4913511;28;99533;-71
2023/12/27 04:45:25;;;;;;;1.00;0.90;;;2.40;99.90;2.10;101094.00;;;;4913240;28;88049;-71
2023/12/27 04:47:51;;;;;;;0.97;0.77;;;2.40;99.90;2.10;101112.00;;;;4913108;28;99807;-71
2023/12/27 04:50:17;;;;;;;1.43;0.80;;;2.40;99.90;2.10;101106.00;;;;4909295;28;88746;-71
2023/12/27 04:52:57;;;;;;;1.43;0.87;;;2.30;99.90;2.00;101100.00;;;;4911541;28;86837;-72
2023/12/27 04:55:23;;;;;;;2.80;0.90;;;2.30;99.90;1.90;101091.00;;;;4912524;28;88256;-72
2023/12/27 04:57:49;;;;;;;5.13;1.00;;;2.30;99.90;1.90;101093.00;;;;4917206;28;87864;-71
2023/12/27 05:00:15;;;;;;;0.83;0.50;;;2.20;99.90;1.80;101096.00;;;;4926894;28;88878;-70
2023/12/27 05:02:40;;;;;;;3.07;0.93;;;2.20;99.90;1.70;101093.00;;;;4929741;28;112012;-71
2023/12/27 05:05:07;;;;;;;1.17;0.40;;;2.10;99.90;1.70;101101.00;;;;4908697;28;110184;-70
2023/12/27 05:07:33;;;;;;;2.10;0.60;;;2.00;99.90;1.60;101110.00;;;;4912900;28;87998;-73
2023/12/27 05:09:59;;;;;;;3.77;1.07;;;2.00;99.90;1.60;101108.00;;;;4910612;28;116768;-70
2023/12/27 05:12:24;;;;;;;3.47;0.67;;;1.90;99.90;1.50;101114.00;;;;4906387;28;117655;-70
2023/12/27 05:14:50;;;;;;;1.70;1.03;;;1.90;99.90;1.50;101117.00;;;;4912967;28;110353;-70
2023/12/27 05:17:15;;;;;;;0.63;0.60;;;1.80;99.90;1.40;101114.00;;;;4912821;28;102693;-70
2023/12/27 05:19:41;;;;;;;1.23;0.73;;;2.00;99.90;1.40;101117.00;;;;4912405;28;116941;-70
2023/12/27 05:22:08;;;;;;;1.90;0.47;;;1.70;99.90;1.30;101120.00;;;;4913884;28;116613;-70
2023/12/27 05:24:33;;;;;;;1.37;0.70;;;1.60;99.90;1.30;101128.00;;;;4914124;28;88715;-71
2023/12/27 05:26:59;;;;;;;4.33;0.83;;;1.60;99.90;1.30;101114.00;;;;4910190;28;107719;-72
2023/12/27 05:29:24;;;;;;;0.47;0.47;;;1.60;99.90;1.30;101119.00;;;;4909557;28;117521;-72
2023/12/27 05:31:51;;;;;;;0.60;0.60;;;1.50;99.90;1.20;101113.00;;;;4909244;28;88261;-72
2023/12/27 05:34:17;;;;;;;0.73;0.50;;;1.90;99.90;1.20;101122.00;;;;4917692;28;87909;-72
2023/12/27 05:36:43;;;;;;;1.20;1.07;;;1.50;99.90;1.20;101135.00;;;;4915715;28;88271;-71
2023/12/27 05:39:08;;;;;;;1.80;1.13;;;1.50;99.90;1.10;101142.00;;;;4910236;28;116538;-70
2023/12/27 05:41:34;;;;;;;2.07;1.13;;;1.50;99.90;1.10;101149.00;;;;4909728;28;117229;-71
2023/12/27 05:44:01;;;;;;;3.30;1.23;;;2.20;99.90;1.00;101139.00;;;;4912392;28;110508;-70
2023/12/27 05:46:26;;;;;;;1.97;1.63;;;1.40;99.90;1.00;101146.00;;;;4917175;28;88206;-71
2023/12/27 05:48:52;;;;;;;2.23;1.63;;;1.30;99.90;0.90;101148.00;;;;4907552;28;118138;-70
2023/12/27 05:51:18;;;;;;;2.97;1.60;;;1.40;99.90;0.80;101154.00;;;;4915190;28;118680;-71
2023/12/27 05:53:43;;;;;;;1.67;1.40;;;1.20;99.90;0.80;101154.00;;;;4911851;28;87742;-71
2023/12/27 05:56:09;;;;;;;4.23;1.37;;;1.20;99.90;0.80;101149.00;;;;4909240;28;95708;-72
2023/12/27 05:58:34;;;;;;;1.40;0.90;;;1.20;99.90;0.70;101144.00;;;;4908856;28;117756;-71
2023/12/27 06:01:00;;;;;;;1.83;1.00;;;1.00;99.90;0.60;101153.00;;;;4907118;28;117569;-72
2023/12/27 06:03:26;;;;;;;1.10;0.60;;;1.00;99.90;0.60;101144.00;;;;4914887;28;111529;-71
2023/12/27 06:05:51;;;;;;;0.73;0.57;;;0.90;99.90;0.50;101152.00;;;;4914542;28;108320;-72
2023/12/27 06:08:20;;;;;;;1.30;1.20;;;1.00;99.90;0.50;101150.00;;;;4914284;28;116596;-72
2023/12/27 06:10:46;;;;;;;1.60;0.90;;;0.80;99.90;0.50;101150.00;;;;4913587;28;88685;-71
2023/12/27 06:13:12;;;;;;;2.10;0.90;;;0.80;99.90;0.40;101159.00;;;;4907368;28;88999;-71
2023/12/27 06:15:38;;;;;;;1.00;0.73;;;0.80;99.90;0.40;101169.00;;;;4905410;28;99809;-72
2023/12/27 06:18:06;;;;;;;0.83;0.70;;;1.60;99.90;0.30;101167.00;;;;4909715;28;117590;-71
2023/12/27 06:20:32;;;;;;;1.77;1.07;;;0.70;99.90;0.30;101166.00;;;;4907486;28;87780;-71
2023/12/27 06:22:58;;;;;;;5.57;1.00;;;0.60;99.90;0.30;101164.00;;;;4906188;28;110252;-71
2023/12/27 06:25:24;;;;;;;5.37;2.47;;;0.60;99.90;0.20;101160.00;;;;4902384;28;107779;-71
2023/12/27 06:27:49;;;;;;;12.00;2.17;;;0.60;99.90;0.20;101166.00;;;;4909805;28;89304;-71
2023/12/27 06:30:40;;;;;;;10.37;1.40;;;0.50;99.90;0.20;101169.00;;;;4901893;28;116397;-70
2023/12/27 06:33:06;;;;;;;11.70;2.73;;;0.60;99.90;0.20;101188.00;;;;4909265;28;110088;-70
2023/12/27 06:35:32;;;;;;;6.77;2.93;;;0.60;99.90;0.20;101177.00;;;;4906871;28;109403;-69
2023/12/27 06:37:58;;;;;;;11.87;4.80;;;0.60;99.90;0.10;101179.00;;;;4907885;28;88974;-69
2023/12/27 06:40:24;;;;;;;2.47;1.30;;;0.40;99.90;0.00;101181.00;;;;4906377;28;91612;-70
2023/12/27 06:42:50;;;;;;;2.93;1.87;;;0.40;99.90;0.00;101172.00;;;;4910494;28;109673;-72
2023/12/27 06:45:15;;;;;;;1.47;1.30;;;0.40;99.90;0.00;101174.00;;;;4904975;28;87795;-71
2023/12/27 06:47:41;;;;;;;3.27;1.53;;;0.80;99.90;-0.10;101167.00;;;;4908333;28;88924;-71
2023/12/27 06:50:07;;;;;;;5.10;1.30;;;0.30;99.90;-0.20;101168.00;;;;4905141;28;116725;-71
2023/12/27 06:52:33;;;;;;;3.00;1.33;;;0.20;99.90;-0.20;101179.00;;;;4903561;28;107777;-71
2023/12/27 06:54:58;;;;;;;2.13;1.27;;;0.20;99.90;-0.30;101172.00;;;;4903787;28;108935;-71
2023/12/27 06:57:24;;;;;;;2.67;1.90;;;0.10;99.90;-0.30;101182.00;;;;4904869;28;89019;-71
2023/12/27 06:59:50;;;;;;;3.37;1.90;;;0.10;99.90;-0.30;101178.00;;;;4904160;28;112498;-71
2023/12/27 07:02:16;;;;;;;3.43;2.10;;;0.10;99.90;-0.30;101169.00;;;;4906672;28;90483;-71
2023/12/27 07:04:43;;;;;;;4.40;2.10;;;0.10;99.90;-0.30;101167.00;;;;4906722;28;107828;-71
2023/12/27 07:07:09;;;;;;;6.63;2.20;;;0.00;99.90;-0.40;101176.00;;;;4912775;28;89572;-71
2023/12/27 07:09:34;;;;;;;4.30;1.43;;;0.00;99.90;-0.40;101171.00;;;;4912750;28;116724;-71
2023/12/27 07:12:00;;;;;;;3.80;1.83;;;0.10;99.90;-0.50;101169.00;;;;4910126;28;109540;-71
2023/12/27 07:14:26;;;;;;;2.73;1.53;;;0.00;99.90;-0.50;101174.00;;;;4911980;28;109016;-70
2023/12/27 07:16:51;;;;;;;1.93;1.17;;;-0.10;99.90;-0.50;101166.00;;;;4898844;28;118653;-70
2023/12/27 07:19:17;;;;;;;7.37;1.83;;;0.40;99.90;-0.50;101186.00;;;;4908998;28;117549;-70
2023/12/27 07:21:43;;;;;;;3.93;2.53;;;-0.10;99.90;-0.50;101185.00;;;;4908177;28;109832;-71
2023/12/27 07:24:08;;;;;;;3.63;2.17;;;-0.10;99.90;-0.50;101186.00;;;;4903871;28;87960;-70
2023/12/27 07:26:34;;;;;;;5.33;1.80;;;-0.10;99.90;-0.50;101196.00;;;;4905136;28;118516;-71
2023/12/27 07:29:00;;;;;;;3.90;2.30;;;-0.10;99.90;-0.50;101202.00;;;;4902849;28;118613;-72
2023/12/27 07:31:25;;;;;;;2.07;1.83;;;-0.10;99.90;-0.50;101210.00;;;;4903224;28;87936;-71
2023/12/27 07:33:51;;;;;;;3.50;1.63;;;-0.10;99.90;-0.40;101197.00;;;;4922477;28;108485;-71
2023/12/27 07:36:17;;;;;;;7.40;2.07;;;0.00;99.90;-0.30;101208.00;;;;4897446;28;117859;-71
2023/12/27 07:38:42;;;;;;;6.13;2.47;;;0.00;99.90;-0.20;101217.00;;;;4903962;28;87802;-71
2023/12/27 07:41:08;;;;;;;7.87;2.57;;;0.10;99.90;-0.10;101211.00;;;;4903143;28;111757;-71
2023/12/27 07:43:35;;;;;;;2.43;1.73;;;0.20;99.90;0.10;101223.00;;;;4909290;28;93217;-71
2023/12/27 07:46:01;;;;;;;2.03;1.83;;;0.40;99.90;0.30;101213.00;;;;4910135;28;87989;-71
2023/12/27 07:48:28;;;;;;;3.83;2.17;;;0.60;99.90;0.50;101207.00;;;;4902831;28;87921;-71
2023/12/27 07:50:55;;;;;;;1.70;1.30;;;1.40;99.90;0.70;101225.00;;;;4905046;28;89192;-71
2023/12/27 07:53:21;;;;;;;7.57;1.53;;;1.00;99.90;1.00;101208.00;;;;4903354;28;89693;-71
2023/12/27 07:55:47;;;;;;;2.40;1.30;;;1.10;99.90;1.20;101218.00;;;;4902872;28;88156;-71
2023/12/27 07:58:12;;;;;;;2.10;1.50;;;1.40;99.90;1.50;101212.00;;;;4890180;28;119573;-71
2023/12/27 08:00:38;;;;;;;5.13;2.37;;;1.70;99.90;1.70;101208.00;;;;4911544;28;87835;-71
2023/12/27 08:03:08;;;;;;;4.70;2.13;;;1.90;99.90;2.00;101225.00;;;;4891677;28;87853;-70
2023/12/27 08:05:35;;;;;;;3.47;2.07;;;2.20;99.90;2.40;101222.00;;;;4902532;28;88115;-70
2023/12/27 08:08:04;;;;;;;2.83;1.73;;;3.10;99.90;2.70;101234.00;;;;4905882;28;88794;-71
2023/12/27 08:10:31;;;;;;;9.57;3.80;;;2.80;99.90;3.00;101227.00;;;;4906561;28;87870;-70
2023/12/27 08:12:58;;;;;;;7.50;3.80;;;3.20;99.90;3.30;101233.00;;;;4906105;28;88185;-71
2023/12/27 08:15:24;;;;;;;5.13;2.70;;;3.40;99.90;3.50;101225.00;;;;4908717;28;89576;-71
2023/12/27 08:17:49;;;;;;;1.87;1.70;;;3.70;99.90;3.70;101239.00;;;;4907855;28;109802;-71
2023/12/27 08:20:15;;;;;;;2.03;1.43;;;3.90;99.90;4.00;101246.00;;;;4909479;28;110315;-72
2023/12/27 08:22:41;;;;;;;2.47;1.03;;;4.20;99.90;4.30;101247.00;;;;4910322;28;108082;-71
2023/12/27 08:25:12;;;;;;;1.00;0.67;;;5.20;99.90;4.60;101243.00;;;;4908987;28;118629;-71
2023/12/27 08:27:38;;;;;;;0.97;0.90;;;4.70;99.90;4.80;101241.00;;;;4907764;28;88108;-71
2023/12/27 08:30:07;;;;;;;1.43;1.17;;;4.90;99.90;5.00;101245.00;;;;4910472;28;101655;-71
2023/12/27 08:32:33;;;;;;;2.10;0.70;;;5.20;99.90;5.20;101252.00;;;;4906998;28;87937;-71
2023/12/27 08:35:00;;;;;;;2.80;1.17;;;6.10;99.90;5.50;101257.00;;;;4909634;28;88782;-72
2023/12/27 08:37:27;;;;;;;0.63;0.53;;;5.50;99.90;5.70;101263.00;;;;4904888;28;88502;-71
2023/12/27 08:39:52;;;;;;;1.23;0.90;;;5.80;99.90;6.00;101277.00;;;;4906963;28;89096;-72
2023/12/27 08:42:18;;;;;;;1.60;0.83;;;6.00;99.90;6.20;101263.00;;;;4910155;28;108010;-71
2023/12/27 08:44:43;;;;;;;3.23;1.60;;;6.70;99.90;6.40;101270.00;;;;4907270;28;116286;-71
2023/12/27 08:47:09;;;;;;;1.53;1.10;;;6.80;99.90;6.40;101272.00;;;;4917293;28;92517;-71
2023/12/27 08:49:35;;;;;;;6.00;1.70;;;6.60;99.90;6.30;101278.00;;;;4906169;28;110381;-71
2023/12/27 08:52:07;;;;;;;13.00;4.33;;;6.60;99.90;6.10;101275.00;;;;4904339;28;107429;-71
2023/12/27 08:54:33;;;;;;;18.67;2.57;;;6.40;99.90;5.90;101272.00;;;;4908292;28;87725;-71
2023/12/27 08:56:59;;;;;;;2.73;1.33;;;6.20;99.90;5.70;101281.00;;;;4909502;28;117760;-71
2023/12/27 08:59:24;;;;;;;2.93;1.67;;;6.40;99.90;5.50;101280.00;;;;4906633;28;88305;-71
2023/12/27 09:01:50;;;;;;;7.03;2.37;;;5.80;99.90;5.40;101290.00;;;;4892216;28;88036;-70
2023/12/27 09:04:19;;;;;;;1.47;1.37;;;5.60;99.90;5.20;101281.00;;;;4906985;28;118491;-71
2023/12/27 09:06:44;;;;;;;1.77;1.63;;;5.60;99.90;5.10;101272.00;;;;4910224;28;88065;-71
2023/12/27 09:09:11;;;;;;;1.67;1.07;;;5.90;99.90;4.90;101270.00;;;;4906963;28;110167;-70
2023/12/27 09:11:37;;;;;;;1.13;1.03;;;6.10;99.90;4.90;101256.00;;;;4903837;28;87992;-71
2023/12/27 09:14:03;;;;;;;3.53;0.80;;;5.80;99.90;5.00;101263.00;;;;4912424;28;116699;-71
2023/12/27 09:16:29;;;;;;;1.40;1.17;;;5.20;99.90;5.10;101273.00;;;;4907473;28;87883;-71
2023/12/27 09:18:54;;;;;;;1.00;0.67;;;5.20;99.90;5.30;101273.00;;;;4906539;28;108614;-71
2023/12/27 09:21:20;;;;;;;1.83;0.93;;;5.60;99.90;5.60;101285.00;;;;4906065;28;108920;-71
2023/12/27 09:23:46;;;;;;;1.00;0.83;;;6.10;99.90;5.80;101276.00;;;;4904400;28;118103;-71
2023/12/27 09:26:12;;;;;;;2.37;1.07;;;5.80;99.90;5.90;101274.00;;;;4901692;28;117826;-71
2023/12/27 09:28:38;;;;;;;0.87;0.80;;;6.00;99.90;6.10;101277.00;;;;4910913;28;88775;-71
2023/12/27 09:31:04;;;;;;;2.53;0.93;;;6.10;99.90;6.30;101273.00;;;;4908032;28;108289;-71
2023/12/27 09:33:29;;;;;;;1.37;1.23;;;6.80;99.90;6.50;101288.00;;;;4907722;28;118258;-71
2023/12/27 09:35:55;;;;;;;1.27;0.80;;;7.20;99.90;6.70;101283.00;;;;4905854;28;106876;-71
2023/12/27 09:38:21;;;;;;;0.90;0.73;;;7.10;99.90;7.00;101276.00;;;;4901915;28;109164;-71
2023/12/27 09:40:48;;;;;;;2.03;1.23;;;6.90;99.90;7.20;101276.00;;;;4905826;28;87850;-72
2023/12/27 09:43:15;;;;;;;3.40;1.73;;;7.70;99.90;7.50;101274.00;;;;4906877;28;89172;-72
2023/12/27 09:45:41;;;;;;;0.90;0.90;;;7.50;99.90;7.80;101290.00;;;;4908412;28;88086;-72
2023/12/27 09:48:13;;;;;;;6.83;1.57;;;7.80;99.90;8.00;101273.00;;;;4905948;28;109923;-72
2023/12/27 09:50:40;;;;;;;1.77;1.27;;;8.00;99.90;8.30;101274.00;;;;4917032;28;87928;-72
2023/12/27 09:53:09;;;;;;;2.67;1.47;;;8.30;99.90;8.50;101263.00;;;;4908078;28;90114;-71
2023/12/27 09:55:34;;;;;;;2.67;1.50;;;8.50;99.90;8.70;101267.00;;;;4919518;28;108861;-72
2023/12/27 09:58:01;;;;;;;5.73;2.70;;;8.70;99.90;8.90;101275.00;;;;4910216;28;108775;-72
2023/12/27 10:00:28;;;;;;;9.07;2.63;;;8.90;99.90;9.00;101267.00;;;;4913110;28;87938;-71
2023/12/27 10:02:58;;;;;;;9.93;3.07;;;9.00;99.90;9.20;101262.00;;;;4903088;28;89642;-71
2023/12/27 10:05:46;;;;;;;4.33;2.70;;;9.10;99.90;9.30;101257.00;;;;4906535;28;89382;-70
2023/12/27 10:08:12;;;;;;;7.77;2.97;;;9.30;99.90;9.50;101255.00;;;;4896865;28;87940;-70
2023/12/27 10:10:39;;;;;;;4.27;2.80;;;9.40;99.90;9.70;101264.00;;;;4907403;28;110177;-71
2023/12/27 10:13:05;;;;;;;9.57;2.30;;;9.70;99.90;10.00;101254.00;;;;4908350;28;116332;-71
2023/12/27 10:15:31;;;;;;;3.70;1.33;;;9.90;99.90;10.10;101246.00;;;;4905909;28;88291;-71
2023/12/27 10:17:57;;;;;;;2.60;1.03;;;10.10;99.90;10.30;101251.00;;;;4903770;28;110797;-71
2023/12/27 10:20:36;;;;;;;4.60;1.17;;;10.20;99.90;10.40;101244.00;;;;4903653;28;108780;-72
2023/12/27 10:23:02;;;;;;;0.83;0.70;;;10.40;99.90;10.60;101235.00;;;;4903517;28;88054;-71
2023/12/27 10:25:28;;;;;;;2.17;1.50;;;10.50;99.90;10.80;101235.00;;;;4921777;28;87785;-72
2023/12/27 10:27:55;;;;;;;2.40;1.13;;;10.70;99.90;11.00;101238.00;;;;4908759;28;87956;-72
2023/12/27 10:30:21;;;;;;;0.80;0.60;;;10.90;99.90;11.10;101233.00;;;;4924809;28;87980;-72
2023/12/27 10:32:58;;;;;;;1.70;0.70;;;11.10;99.90;11.20;101238.00;;;;4907466;28;118067;-71
2023/12/27 10:35:27;;;;;;;4.53;1.00;;;11.10;99.90;11.30;101222.00;;;;4905162;28;88838;-71
2023/12/27 10:38:06;;;;;;;1.43;0.80;;;11.30;99.90;11.50;101229.00;;;;4905073;28;87933;-71
2023/12/27 10:40:33;;;;;;;7.53;2.37;;;11.40;99.90;11.70;101231.00;;;;4917386;28;87935;-71
2023/12/27 10:42:59;;;;;;;3.17;1.33;;;11.60;99.90;11.90;101226.00;;;;4907663;28;90000;-71
2023/12/27 10:45:25;;;;;;;1.97;0.83;;;11.70;99.90;12.10;101225.00;;;;4908145;28;119012;-71
2023/12/27 10:48:00;;;;;;;0.87;0.60;;;12.00;99.90;12.30;101218.00;;;;4912856;28;88057;-70
2023/12/27 10:50:28;;;;;;;4.67;1.20;;;12.20;99.90;12.50;101214.00;;;;4909798;28;87783;-71